sensor_id;sensor_type;location;lat;lon;timestamp;temperature;humidity
4795;DHT22;2411;47.060;15.064;2022-09-09T00:02:09;12.50;1.00
4795;DHT22;2411;47.060;15.064;2022-09-09T00:04:39;12.60;1.00
4795;DHT22;2411;47.060;15.064;2022-09-09T00:07:25;12.40;1.00
4795;DHT22;2411;47.060;15.064;2022-09-09T00:10:19;12.40;1.00
4795;DHT22;2411;47.060;15.064;2022-09-09T00:15:46;12.30;1.00
4795;DHT22;2411;47.060;15.064;2022-09-09T00:18:26;12.30;1.00
4795;DHT22;2411;47.060;15.064;2022-09-09T00:21:07;12.40;1.00
4795;DHT22;2411;47.060;15.064;2022-09-09T00:23:38;12.50;1.00
4795;DHT22;2411;47.060;15.064;2022-09-09T00:31:48;12.60;1.00
4795;DHT22;2411;47.060;15.064;2022-09-09T00:34:22;12.50;1.00
4795;DHT22;2411;47.060;15.064;2022-09-09T00:36:52;12.50;1.00
4795;DHT22;2411;47.060;15.064;2022-09-09T00:39:37;12.40;1.00
4795;DHT22;2411;47.060;15.064;2022-09-09T00:42:18;12.40;1.00
4795;DHT22;2411;47.060;15.064;2022-09-09T00:50:15;12.30;1.00
4795;DHT22;2411;47.060;15.064;2022-09-09T00:55:50;12.20;1.00
4795;DHT22;2411;47.060;15.064;2022-09-09T00:58:19;12.10;1.00
4795;DHT22;2411;47.060;15.064;2022-09-09T01:00:51;12.10;1.00
4795;DHT22;2411;47.060;15.064;2022-09-09T01:03:43;12.20;1.00
4795;DHT22;2411;47.060;15.064;2022-09-09T01:09:57;12.10;1.00
4795;DHT22;2411;47.060;15.064;2022-09-09T01:15:10;12.10;1.00
4795;DHT22;2411;47.060;15.064;2022-09-09T01:20:18;11.90;1.00
4795;DHT22;2411;47.060;15.064;2022-09-09T01:28:32;11.80;1.00
4795;DHT22;2411;47.060;15.064;2022-09-09T01:31:04;11.70;1.00
4795;DHT22;2411;47.060;15.064;2022-09-09T01:33:33;11.70;1.00
4795;DHT22;2411;47.060;15.064;2022-09-09T01:36:04;11.60;1.00
4795;DHT22;2411;47.060;15.064;2022-09-09T01:38:34;11.60;1.00
4795;DHT22;2411;47.060;15.064;2022-09-09T01:41:03;11.60;1.00
4795;DHT22;2411;47.060;15.064;2022-09-09T01:43:30;11.50;1.00
4795;DHT22;2411;47.060;15.064;2022-09-09T01:46:00;11.50;1.00
4795;DHT22;2411;47.060;15.064;2022-09-09T01:48:28;11.60;1.00
4795;DHT22;2411;47.060;15.064;2022-09-09T01:50:55;11.60;1.00
4795;DHT22;2411;47.060;15.064;2022-09-09T01:53:23;11.70;1.00
4795;DHT22;2411;47.060;15.064;2022-09-09T02:01:26;11.70;1.00
4795;DHT22;2411;47.060;15.064;2022-09-09T02:03:57;11.70;1.00
4795;DHT22;2411;47.060;15.064;2022-09-09T02:06:33;11.80;1.00
4795;DHT22;2411;47.060;15.064;2022-09-09T02:09:04;11.80;1.00
4795;DHT22;2411;47.060;15.064;2022-09-09T02:11:32;11.80;1.00
4795;DHT22;2411;47.060;15.064;2022-09-09T02:14:08;11.80;1.00
4795;DHT22;2411;47.060;15.064;2022-09-09T02:16:59;12.00;1.00
4795;DHT22;2411;47.060;15.064;2022-09-09T02:19:32;12.00;1.00
4795;DHT22;2411;47.060;15.064;2022-09-09T02:22:01;12.00;1.00
4795;DHT22;2411;47.060;15.064;2022-09-09T02:24:35;11.90;1.00
4795;DHT22;2411;47.060;15.064;2022-09-09T02:27:04;11.90;1.00
4795;DHT22;2411;47.060;15.064;2022-09-09T02:29:39;11.90;1.00
4795;DHT22;2411;47.060;15.064;2022-09-09T02:32:20;12.00;1.00
4795;DHT22;2411;47.060;15.064;2022-09-09T02:35:12;12.10;1.00
4795;DHT22;2411;47.060;15.064;2022-09-09T02:37:39;12.10;1.00
4795;DHT22;2411;47.060;15.064;2022-09-09T02:40:08;12.20;1.00
4795;DHT22;2411;47.060;15.064;2022-09-09T02:42:44;12.20;1.00
4795;DHT22;2411;47.060;15.064;2022-09-09T02:45:15;12.20;1.00
4795;DHT22;2411;47.060;15.064;2022-09-09T02:57:53;12.40;1.00
4795;DHT22;2411;47.060;15.064;2022-09-09T03:00:25;12.50;1.00
4795;DHT22;2411;47.060;15.064;2022-09-09T03:02:53;12.50;1.00
4795;DHT22;2411;47.060;15.064;2022-09-09T03:05:21;12.60;1.00
4795;DHT22;2411;47.060;15.064;2022-09-09T03:07:48;12.60;1.00
4795;DHT22;2411;47.060;15.064;2022-09-09T03:10:17;12.60;1.00
4795;DHT22;2411;47.060;15.064;2022-09-09T03:12:44;12.60;1.00
4795;DHT22;2411;47.060;15.064;2022-09-09T03:15:10;12.60;1.00
4795;DHT22;2411;47.060;15.064;2022-09-09T03:17:37;12.60;1.00
4795;DHT22;2411;47.060;15.064;2022-09-09T03:20:05;12.70;1.00
4795;DHT22;2411;47.060;15.064;2022-09-09T03:22:32;12.70;1.00
4795;DHT22;2411;47.060;15.064;2022-09-09T03:24:59;12.80;1.00
4795;DHT22;2411;47.060;15.064;2022-09-09T03:27:25;12.80;1.00
4795;DHT22;2411;47.060;15.064;2022-09-09T03:29:52;12.80;1.00
4795;DHT22;2411;47.060;15.064;2022-09-09T03:32:19;12.90;1.00
4795;DHT22;2411;47.060;15.064;2022-09-09T03:34:48;12.90;1.00
4795;DHT22;2411;47.060;15.064;2022-09-09T03:37:19;12.90;1.00
4795;DHT22;2411;47.060;15.064;2022-09-09T03:39:46;12.90;1.00
4795;DHT22;2411;47.060;15.064;2022-09-09T03:42:14;12.90;1.00
4795;DHT22;2411;47.060;15.064;2022-09-09T03:44:46;12.90;1.00
4795;DHT22;2411;47.060;15.064;2022-09-09T03:47:17;13.00;1.00
4795;DHT22;2411;47.060;15.064;2022-09-09T03:49:45;13.00;1.00
4795;DHT22;2411;47.060;15.064;2022-09-09T03:52:13;13.00;1.00
4795;DHT22;2411;47.060;15.064;2022-09-09T03:54:40;13.00;1.00
4795;DHT22;2411;47.060;15.064;2022-09-09T03:57:08;13.00;1.00
4795;DHT22;2411;47.060;15.064;2022-09-09T03:59:35;13.00;1.00
4795;DHT22;2411;47.060;15.064;2022-09-09T04:02:03;13.00;1.00
4795;DHT22;2411;47.060;15.064;2022-09-09T04:04:30;13.00;1.00
4795;DHT22;2411;47.060;15.064;2022-09-09T04:06:56;13.00;1.00
4795;DHT22;2411;47.060;15.064;2022-09-09T04:09:23;13.00;1.00
4795;DHT22;2411;47.060;15.064;2022-09-09T04:11:50;13.00;1.00
4795;DHT22;2411;47.060;15.064;2022-09-09T04:14:17;13.00;1.00
4795;DHT22;2411;47.060;15.064;2022-09-09T04:16:44;13.00;1.00
4795;DHT22;2411;47.060;15.064;2022-09-09T04:19:12;13.00;1.00
4795;DHT22;2411;47.060;15.064;2022-09-09T04:21:41;13.00;1.00
4795;DHT22;2411;47.060;15.064;2022-09-09T04:24:08;13.00;1.00
4795;DHT22;2411;47.060;15.064;2022-09-09T04:26:36;13.00;1.00
4795;DHT22;2411;47.060;15.064;2022-09-09T04:29:04;13.00;1.00
4795;DHT22;2411;47.060;15.064;2022-09-09T04:31:31;13.00;1.00
4795;DHT22;2411;47.060;15.064;2022-09-09T04:33:58;13.00;1.00
4795;DHT22;2411;47.060;15.064;2022-09-09T04:36:25;13.00;1.00
4795;DHT22;2411;47.060;15.064;2022-09-09T04:38:52;13.00;1.00
4795;DHT22;2411;47.060;15.064;2022-09-09T04:41:19;13.00;1.00
4795;DHT22;2411;47.060;15.064;2022-09-09T04:43:45;13.00;1.00
4795;DHT22;2411;47.060;15.064;2022-09-09T04:46:12;13.00;1.00
4795;DHT22;2411;47.060;15.064;2022-09-09T04:48:39;13.00;1.00
4795;DHT22;2411;47.060;15.064;2022-09-09T04:51:11;12.90;1.00
4795;DHT22;2411;47.060;15.064;2022-09-09T04:53:39;12.90;1.00
4795;DHT22;2411;47.060;15.064;2022-09-09T04:56:09;13.00;1.00
4795;DHT22;2411;47.060;15.064;2022-09-09T04:58:37;13.00;1.00
4795;DHT22;2411;47.060;15.064;2022-09-09T05:01:10;13.00;1.00
4795;DHT22;2411;47.060;15.064;2022-09-09T05:03:37;13.10;1.00
4795;DHT22;2411;47.060;15.064;2022-09-09T05:06:09;13.10;1.00
4795;DHT22;2411;47.060;15.064;2022-09-09T05:08:38;13.20;1.00
4795;DHT22;2411;47.060;15.064;2022-09-09T05:11:18;13.10;1.00
4795;DHT22;2411;47.060;15.064;2022-09-09T05:13:46;13.10;1.00
4795;DHT22;2411;47.060;15.064;2022-09-09T05:16:14;13.10;1.00
4795;DHT22;2411;47.060;15.064;2022-09-09T05:18:41;13.00;1.00
4795;DHT22;2411;47.060;15.064;2022-09-09T05:21:18;13.00;1.00
4795;DHT22;2411;47.060;15.064;2022-09-09T05:23:46;12.90;1.00
4795;DHT22;2411;47.060;15.064;2022-09-09T05:26:15;12.90;1.00
4795;DHT22;2411;47.060;15.064;2022-09-09T05:28:43;12.90;1.00
4795;DHT22;2411;47.060;15.064;2022-09-09T05:31:12;12.90;1.00
4795;DHT22;2411;47.060;15.064;2022-09-09T05:33:41;13.00;1.00
4795;DHT22;2411;47.060;15.064;2022-09-09T05:36:20;13.20;1.00
4795;DHT22;2411;47.060;15.064;2022-09-09T05:38:48;13.50;1.00
4795;DHT22;2411;47.060;15.064;2022-09-09T05:41:16;13.80;1.00
4795;DHT22;2411;47.060;15.064;2022-09-09T05:43:44;14.10;1.00
4795;DHT22;2411;47.060;15.064;2022-09-09T05:46:14;14.40;1.00
4795;DHT22;2411;47.060;15.064;2022-09-09T05:48:44;14.60;1.00
4795;DHT22;2411;47.060;15.064;2022-09-09T05:51:18;14.70;1.00
4795;DHT22;2411;47.060;15.064;2022-09-09T05:53:46;14.80;1.00
4795;DHT22;2411;47.060;15.064;2022-09-09T05:56:16;14.90;1.00
4795;DHT22;2411;47.060;15.064;2022-09-09T05:58:44;14.90;1.00
4795;DHT22;2411;47.060;15.064;2022-09-09T06:01:19;15.00;1.00
4795;DHT22;2411;47.060;15.064;2022-09-09T06:03:47;15.10;1.00
4795;DHT22;2411;47.060;15.064;2022-09-09T06:06:17;15.20;1.00
4795;DHT22;2411;47.060;15.064;2022-09-09T06:08:45;15.30;1.00
4795;DHT22;2411;47.060;15.064;2022-09-09T06:11:26;15.30;1.00
4795;DHT22;2411;47.060;15.064;2022-09-09T06:13:53;15.20;1.00
4795;DHT22;2411;47.060;15.064;2022-09-09T06:16:24;15.20;1.00
4795;DHT22;2411;47.060;15.064;2022-09-09T06:18:52;15.30;1.00
4795;DHT22;2411;47.060;15.064;2022-09-09T06:21:21;15.30;1.00
4795;DHT22;2411;47.060;15.064;2022-09-09T06:23:48;15.40;1.00
4795;DHT22;2411;47.060;15.064;2022-09-09T06:26:28;15.50;1.00
4795;DHT22;2411;47.060;15.064;2022-09-09T06:28:57;15.70;1.00
4795;DHT22;2411;47.060;15.064;2022-09-09T06:31:28;15.70;1.00
4795;DHT22;2411;47.060;15.064;2022-09-09T06:34:01;15.90;1.00
4795;DHT22;2411;47.060;15.064;2022-09-09T06:36:30;16.10;1.00
4795;DHT22;2411;47.060;15.064;2022-09-09T06:38:58;16.20;1.00
4795;DHT22;2411;47.060;15.064;2022-09-09T06:41:27;16.40;1.00
4795;DHT22;2411;47.060;15.064;2022-09-09T06:43:54;16.50;1.00
4795;DHT22;2411;47.060;15.064;2022-09-09T06:46:23;16.70;1.00
4795;DHT22;2411;47.060;15.064;2022-09-09T06:48:55;16.70;1.00
4795;DHT22;2411;47.060;15.064;2022-09-09T06:51:24;16.80;1.00
4795;DHT22;2411;47.060;15.064;2022-09-09T06:53:54;16.70;1.00
4795;DHT22;2411;47.060;15.064;2022-09-09T06:56:30;16.90;1.00
4795;DHT22;2411;47.060;15.064;2022-09-09T06:58:59;17.00;1.00
4795;DHT22;2411;47.060;15.064;2022-09-09T07:01:32;17.00;1.00
4795;DHT22;2411;47.060;15.064;2022-09-09T07:04:00;17.20;1.00
4795;DHT22;2411;47.060;15.064;2022-09-09T07:06:38;17.30;1.00
4795;DHT22;2411;47.060;15.064;2022-09-09T07:09:08;17.30;1.00
4795;DHT22;2411;47.060;15.064;2022-09-09T07:11:43;17.30;1.00
4795;DHT22;2411;47.060;15.064;2022-09-09T07:14:11;17.30;1.00
4795;DHT22;2411;47.060;15.064;2022-09-09T07:16:41;17.40;1.00
4795;DHT22;2411;47.060;15.064;2022-09-09T07:19:09;17.40;1.00
4795;DHT22;2411;47.060;15.064;2022-09-09T07:21:36;17.60;1.00
4795;DHT22;2411;47.060;15.064;2022-09-09T07:24:03;17.70;1.00
4795;DHT22;2411;47.060;15.064;2022-09-09T07:26:34;17.80;1.00
4795;DHT22;2411;47.060;15.064;2022-09-09T07:29:02;17.90;1.00
4795;DHT22;2411;47.060;15.064;2022-09-09T07:31:31;18.00;1.00
4795;DHT22;2411;47.060;15.064;2022-09-09T07:33:59;18.10;1.00
4795;DHT22;2411;47.060;15.064;2022-09-09T07:36:28;18.10;1.00
4795;DHT22;2411;47.060;15.064;2022-09-09T07:39:02;18.10;1.00
4795;DHT22;2411;47.060;15.064;2022-09-09T07:41:33;18.20;1.00
4795;DHT22;2411;47.060;15.064;2022-09-09T07:44:09;18.10;1.00
4795;DHT22;2411;47.060;15.064;2022-09-09T07:46:37;18.00;1.00
4795;DHT22;2411;47.060;15.064;2022-09-09T07:49:07;17.90;1.00
4795;DHT22;2411;47.060;15.064;2022-09-09T07:51:40;17.90;1.00
4795;DHT22;2411;47.060;15.064;2022-09-09T07:54:10;18.00;1.00
4795;DHT22;2411;47.060;15.064;2022-09-09T07:56:38;18.00;1.00
4795;DHT22;2411;47.060;15.064;2022-09-09T07:59:06;18.00;1.00
4795;DHT22;2411;47.060;15.064;2022-09-09T08:01:56;18.00;1.00
4795;DHT22;2411;47.060;15.064;2022-09-09T08:04:23;17.90;1.00
4795;DHT22;2411;47.060;15.064;2022-09-09T08:06:52;17.90;1.00
4795;DHT22;2411;47.060;15.064;2022-09-09T08:09:20;17.90;1.00
4795;DHT22;2411;47.060;15.064;2022-09-09T08:11:47;17.80;1.00
4795;DHT22;2411;47.060;15.064;2022-09-09T08:14:14;17.90;1.00
4795;DHT22;2411;47.060;15.064;2022-09-09T08:16:44;17.90;1.00
4795;DHT22;2411;47.060;15.064;2022-09-09T08:19:11;17.90;1.00
4795;DHT22;2411;47.060;15.064;2022-09-09T08:21:40;17.90;1.00
4795;DHT22;2411;47.060;15.064;2022-09-09T08:24:08;18.00;1.00
4795;DHT22;2411;47.060;15.064;2022-09-09T08:26:39;17.90;1.00
4795;DHT22;2411;47.060;15.064;2022-09-09T08:29:09;17.90;1.00
4795;DHT22;2411;47.060;15.064;2022-09-09T08:34:11;18.00;1.00
4795;DHT22;2411;47.060;15.064;2022-09-09T08:36:44;18.10;1.00
4795;DHT22;2411;47.060;15.064;2022-09-09T08:39:14;18.10;1.00
4795;DHT22;2411;47.060;15.064;2022-09-09T08:50:28;17.80;1.00
4795;DHT22;2411;47.060;15.064;2022-09-09T08:55:43;17.60;1.00
4795;DHT22;2411;47.060;15.064;2022-09-09T08:58:15;17.60;1.00
4795;DHT22;2411;47.060;15.064;2022-09-09T09:03:23;17.60;1.00
4795;DHT22;2411;47.060;15.064;2022-09-09T09:06:06;17.60;1.00
4795;DHT22;2411;47.060;15.064;2022-09-09T09:11:18;17.60;1.00
4795;DHT22;2411;47.060;15.064;2022-09-09T09:14:04;17.70;1.00
4795;DHT22;2411;47.060;15.064;2022-09-09T09:16:57;17.60;1.00
4795;DHT22;2411;47.060;15.064;2022-09-09T09:19:27;17.60;1.00
4795;DHT22;2411;47.060;15.064;2022-09-09T09:25:23;17.80;1.00
4795;DHT22;2411;47.060;15.064;2022-09-09T09:28:10;18.00;1.00
4795;DHT22;2411;47.060;15.064;2022-09-09T09:30:42;18.30;1.00
4795;DHT22;2411;47.060;15.064;2022-09-09T09:35:42;19.40;1.00
4795;DHT22;2411;47.060;15.064;2022-09-09T09:38:20;19.80;1.00
4795;DHT22;2411;47.060;15.064;2022-09-09T09:41:08;20.40;1.00
4795;DHT22;2411;47.060;15.064;2022-09-09T09:43:40;20.70;1.00
4795;DHT22;2411;47.060;15.064;2022-09-09T09:46:21;21.20;1.00
4795;DHT22;2411;47.060;15.064;2022-09-09T09:49:05;20.90;1.00
4795;DHT22;2411;47.060;15.064;2022-09-09T09:51:35;21.50;1.00
4795;DHT22;2411;47.060;15.064;2022-09-09T09:56:45;21.80;1.00
4795;DHT22;2411;47.060;15.064;2022-09-09T10:02:23;22.50;1.00
4795;DHT22;2411;47.060;15.064;2022-09-09T10:05:06;22.40;1.00
4795;DHT22;2411;47.060;15.064;2022-09-09T10:07:33;22.40;1.00
4795;DHT22;2411;47.060;15.064;2022-09-09T10:10:00;22.30;1.00
4795;DHT22;2411;47.060;15.064;2022-09-09T10:15:02;21.90;1.00
4795;DHT22;2411;47.060;15.064;2022-09-09T10:22:52;21.10;1.00
4795;DHT22;2411;47.060;15.064;2022-09-09T10:30:41;20.50;1.00
4795;DHT22;2411;47.060;15.064;2022-09-09T10:39:25;20.40;1.00
4795;DHT22;2411;47.060;15.064;2022-09-09T10:41:35;20.20;1.00
4795;DHT22;2411;47.060;15.064;2022-09-09T10:50:48;19.90;1.00
4795;DHT22;2411;47.060;15.064;2022-09-09T10:53:43;19.70;1.80
4795;DHT22;2411;47.060;15.064;2022-09-09T10:56:16;19.50;1.00
4795;DHT22;2411;47.060;15.064;2022-09-09T10:58:59;19.20;1.00
4795;DHT22;2411;47.060;15.064;2022-09-09T11:04:23;18.90;1.00
4795;DHT22;2411;47.060;15.064;2022-09-09T11:06:55;18.80;1.00
4795;DHT22;2411;47.060;15.064;2022-09-09T11:09:26;18.70;1.00
4795;DHT22;2411;47.060;15.064;2022-09-09T11:11:57;18.70;1.00
4795;DHT22;2411;47.060;15.064;2022-09-09T11:14:41;18.80;1.00
4795;DHT22;2411;47.060;15.064;2022-09-09T11:17:16;18.70;1.00
4795;DHT22;2411;47.060;15.064;2022-09-09T11:19:45;18.80;1.00
4795;DHT22;2411;47.060;15.064;2022-09-09T11:24:53;18.90;1.00
4795;DHT22;2411;47.060;15.064;2022-09-09T11:27:26;18.90;1.00
4795;DHT22;2411;47.060;15.064;2022-09-09T11:36:25;18.70;1.00
4795;DHT22;2411;47.060;15.064;2022-09-09T11:41:08;19.20;1.00
4795;DHT22;2411;47.060;15.064;2022-09-09T11:46:08;20.00;1.00
4795;DHT22;2411;47.060;15.064;2022-09-09T11:48:40;20.40;1.00
4795;DHT22;2411;47.060;15.064;2022-09-09T11:51:24;20.70;1.00
4795;DHT22;2411;47.060;15.064;2022-09-09T11:53:57;21.20;1.00
4795;DHT22;2411;47.060;15.064;2022-09-09T11:56:31;21.40;1.00
4795;DHT22;2411;47.060;15.064;2022-09-09T11:59:04;21.50;1.00
4795;DHT22;2411;47.060;15.064;2022-09-09T12:01:37;21.40;1.00
4795;DHT22;2411;47.060;15.064;2022-09-09T12:07:03;20.70;1.00
4795;DHT22;2411;47.060;15.064;2022-09-09T12:14:44;20.50;1.00
4795;DHT22;2411;47.060;15.064;2022-09-09T12:17:23;20.70;1.00
4795;DHT22;2411;47.060;15.064;2022-09-09T12:31:31;21.00;1.00
4795;DHT22;2411;47.060;15.064;2022-09-09T12:33:49;20.80;1.00
4795;DHT22;2411;47.060;15.064;2022-09-09T12:36:27;20.70;1.00
4795;DHT22;2411;47.060;15.064;2022-09-09T12:38:58;20.60;1.00
4795;DHT22;2411;47.060;15.064;2022-09-09T12:41:27;20.40;1.00
4795;DHT22;2411;47.060;15.064;2022-09-09T12:44:09;20.30;1.00
4795;DHT22;2411;47.060;15.064;2022-09-09T12:46:40;20.10;1.00
4795;DHT22;2411;47.060;15.064;2022-09-09T12:52:17;19.90;1.00
4795;DHT22;2411;47.060;15.064;2022-09-09T12:54:47;19.80;1.00
4795;DHT22;2411;47.060;15.064;2022-09-09T12:57:15;19.80;1.00
4795;DHT22;2411;47.060;15.064;2022-09-09T12:59:43;19.80;1.00
4795;DHT22;2411;47.060;15.064;2022-09-09T13:02:19;19.90;1.00
4795;DHT22;2411;47.060;15.064;2022-09-09T13:04:46;19.80;1.00
4795;DHT22;2411;47.060;15.064;2022-09-09T13:07:13;19.80;1.00
4795;DHT22;2411;47.060;15.064;2022-09-09T13:09:44;19.80;1.00
4795;DHT22;2411;47.060;15.064;2022-09-09T13:12:22;19.70;1.00
4795;DHT22;2411;47.060;15.064;2022-09-09T13:14:51;19.60;1.00
4795;DHT22;2411;47.060;15.064;2022-09-09T13:17:25;19.50;1.00
4795;DHT22;2411;47.060;15.064;2022-09-09T13:19:53;19.50;1.00
4795;DHT22;2411;47.060;15.064;2022-09-09T13:25:06;19.40;1.00
4795;DHT22;2411;47.060;15.064;2022-09-09T13:27:35;19.40;1.00
4795;DHT22;2411;47.060;15.064;2022-09-09T13:30:21;19.20;1.00
4795;DHT22;2411;47.060;15.064;2022-09-09T13:35:49;19.20;1.00
4795;DHT22;2411;47.060;15.064;2022-09-09T13:38:17;19.20;1.00
4795;DHT22;2411;47.060;15.064;2022-09-09T13:41:03;19.20;1.00
4795;DHT22;2411;47.060;15.064;2022-09-09T13:43:51;19.30;1.00
4795;DHT22;2411;47.060;15.064;2022-09-09T13:51:36;20.10;1.00
4795;DHT22;2411;47.060;15.064;2022-09-09T13:54:05;20.20;1.00
4795;DHT22;2411;47.060;15.064;2022-09-09T13:56:37;20.30;1.00
4795;DHT22;2411;47.060;15.064;2022-09-09T13:59:09;20.50;1.00
4795;DHT22;2411;47.060;15.064;2022-09-09T14:01:37;20.60;1.00
4795;DHT22;2411;47.060;15.064;2022-09-09T14:04:04;20.60;1.00
4795;DHT22;2411;47.060;15.064;2022-09-09T14:06:35;20.70;1.00
4795;DHT22;2411;47.060;15.064;2022-09-09T14:09:07;20.60;1.00
4795;DHT22;2411;47.060;15.064;2022-09-09T14:11:34;20.50;1.00
4795;DHT22;2411;47.060;15.064;2022-09-09T14:14:00;20.40;1.00
4795;DHT22;2411;47.060;15.064;2022-09-09T14:16:29;20.20;1.00
4795;DHT22;2411;47.060;15.064;2022-09-09T14:18:56;20.10;1.00
4795;DHT22;2411;47.060;15.064;2022-09-09T14:21:24;19.90;1.00
4795;DHT22;2411;47.060;15.064;2022-09-09T14:23:51;19.80;1.00
4795;DHT22;2411;47.060;15.064;2022-09-09T14:26:22;19.60;1.00
4795;DHT22;2411;47.060;15.064;2022-09-09T14:28:50;19.40;1.00
4795;DHT22;2411;47.060;15.064;2022-09-09T14:31:22;19.20;1.00
4795;DHT22;2411;47.060;15.064;2022-09-09T14:33:50;19.00;1.00
4795;DHT22;2411;47.060;15.064;2022-09-09T14:36:18;18.90;1.00
4795;DHT22;2411;47.060;15.064;2022-09-09T14:38:44;18.70;1.00
4795;DHT22;2411;47.060;15.064;2022-09-09T14:41:15;18.60;1.00
4795;DHT22;2411;47.060;15.064;2022-09-09T14:43:45;18.60;1.00
4795;DHT22;2411;47.060;15.064;2022-09-09T14:46:18;18.60;1.00
4795;DHT22;2411;47.060;15.064;2022-09-09T14:48:45;18.60;1.00
4795;DHT22;2411;47.060;15.064;2022-09-09T14:51:18;18.60;1.00
4795;DHT22;2411;47.060;15.064;2022-09-09T14:53:46;18.60;1.00
4795;DHT22;2411;47.060;15.064;2022-09-09T14:56:18;18.60;1.00
4795;DHT22;2411;47.060;15.064;2022-09-09T14:58:45;18.70;1.00
4795;DHT22;2411;47.060;15.064;2022-09-09T15:01:15;18.80;1.00
4795;DHT22;2411;47.060;15.064;2022-09-09T15:03:51;19.10;1.00
4795;DHT22;2411;47.060;15.064;2022-09-09T15:06:19;19.50;1.00
4795;DHT22;2411;47.060;15.064;2022-09-09T15:08:49;19.70;1.00
4795;DHT22;2411;47.060;15.064;2022-09-09T15:11:16;19.70;1.00
4795;DHT22;2411;47.060;15.064;2022-09-09T15:13:44;19.80;1.00
4795;DHT22;2411;47.060;15.064;2022-09-09T15:16:16;19.70;1.00
4795;DHT22;2411;47.060;15.064;2022-09-09T15:18:44;19.70;1.00
4795;DHT22;2411;47.060;15.064;2022-09-09T15:21:13;19.70;1.00
4795;DHT22;2411;47.060;15.064;2022-09-09T15:23:40;19.80;1.00
4795;DHT22;2411;47.060;15.064;2022-09-09T15:26:08;19.90;1.00
4795;DHT22;2411;47.060;15.064;2022-09-09T15:28:36;19.90;1.00
4795;DHT22;2411;47.060;15.064;2022-09-09T15:31:07;19.90;1.00
4795;DHT22;2411;47.060;15.064;2022-09-09T15:33:35;19.80;1.00
4795;DHT22;2411;47.060;15.064;2022-09-09T15:36:14;19.60;1.00
4795;DHT22;2411;47.060;15.064;2022-09-09T15:38:41;19.60;1.00
4795;DHT22;2411;47.060;15.064;2022-09-09T15:41:08;19.50;1.00
4795;DHT22;2411;47.060;15.064;2022-09-09T15:43:35;19.50;1.00
4795;DHT22;2411;47.060;15.064;2022-09-09T15:48:44;19.40;1.00
4795;DHT22;2411;47.060;15.064;2022-09-09T15:51:14;19.40;1.00
4795;DHT22;2411;47.060;15.064;2022-09-09T15:54:01;19.40;1.00
4795;DHT22;2411;47.060;15.064;2022-09-09T15:56:29;19.30;1.00
4795;DHT22;2411;47.060;15.064;2022-09-09T15:58:59;19.30;1.00
4795;DHT22;2411;47.060;15.064;2022-09-09T16:01:27;19.30;1.00
4795;DHT22;2411;47.060;15.064;2022-09-09T16:03:54;19.30;1.00
4795;DHT22;2411;47.060;15.064;2022-09-09T16:06:22;19.40;1.00
4795;DHT22;2411;47.060;15.064;2022-09-09T16:08:52;19.50;1.00
4795;DHT22;2411;47.060;15.064;2022-09-09T16:11:21;19.40;1.00
4795;DHT22;2411;47.060;15.064;2022-09-09T16:13:50;19.40;1.00
4795;DHT22;2411;47.060;15.064;2022-09-09T16:16:19;19.30;1.00
4795;DHT22;2411;47.060;15.064;2022-09-09T16:18:50;19.20;1.00
4795;DHT22;2411;47.060;15.064;2022-09-09T16:21:19;19.10;1.00
4795;DHT22;2411;47.060;15.064;2022-09-09T16:23:47;19.00;1.00
4795;DHT22;2411;47.060;15.064;2022-09-09T16:26:16;19.00;1.00
4795;DHT22;2411;47.060;15.064;2022-09-09T16:28:44;19.00;1.00
4795;DHT22;2411;47.060;15.064;2022-09-09T16:31:16;19.10;1.00
4795;DHT22;2411;47.060;15.064;2022-09-09T16:33:44;19.10;1.00
4795;DHT22;2411;47.060;15.064;2022-09-09T16:36:17;19.00;1.00
4795;DHT22;2411;47.060;15.064;2022-09-09T16:38:44;18.90;1.00
4795;DHT22;2411;47.060;15.064;2022-09-09T16:41:13;18.70;1.00
4795;DHT22;2411;47.060;15.064;2022-09-09T16:43:40;18.70;1.00
4795;DHT22;2411;47.060;15.064;2022-09-09T16:46:16;18.60;1.00
4795;DHT22;2411;47.060;15.064;2022-09-09T16:48:47;18.50;1.00
4795;DHT22;2411;47.060;15.064;2022-09-09T16:51:17;18.40;1.00
4795;DHT22;2411;47.060;15.064;2022-09-09T16:53:44;18.40;1.00
4795;DHT22;2411;47.060;15.064;2022-09-09T16:56:14;18.30;1.00
4795;DHT22;2411;47.060;15.064;2022-09-09T16:58:42;18.20;1.00
4795;DHT22;2411;47.060;15.064;2022-09-09T17:01:12;18.20;1.00
4795;DHT22;2411;47.060;15.064;2022-09-09T17:03:41;18.10;1.00
4795;DHT22;2411;47.060;15.064;2022-09-09T17:06:14;18.10;1.00
4795;DHT22;2411;47.060;15.064;2022-09-09T17:08:42;18.00;1.00
4795;DHT22;2411;47.060;15.064;2022-09-09T17:11:13;18.00;1.00
4795;DHT22;2411;47.060;15.064;2022-09-09T17:13:42;17.80;1.00
4795;DHT22;2411;47.060;15.064;2022-09-09T17:16:09;17.70;1.00
4795;DHT22;2411;47.060;15.064;2022-09-09T17:18:37;17.60;1.00
4795;DHT22;2411;47.060;15.064;2022-09-09T17:21:05;17.60;1.00
4795;DHT22;2411;47.060;15.064;2022-09-09T17:23:36;17.50;1.00
4795;DHT22;2411;47.060;15.064;2022-09-09T17:26:07;17.50;1.00
4795;DHT22;2411;47.060;15.064;2022-09-09T17:28:38;17.40;1.00
4795;DHT22;2411;47.060;15.064;2022-09-09T17:31:06;17.40;1.00
4795;DHT22;2411;47.060;15.064;2022-09-09T17:33:35;17.30;1.00
4795;DHT22;2411;47.060;15.064;2022-09-09T17:36:09;17.30;1.00
4795;DHT22;2411;47.060;15.064;2022-09-09T17:38:36;17.30;1.00
4795;DHT22;2411;47.060;15.064;2022-09-09T17:41:07;17.30;1.00
4795;DHT22;2411;47.060;15.064;2022-09-09T17:43:35;17.30;1.00
4795;DHT22;2411;47.060;15.064;2022-09-09T17:46:13;17.30;1.00
4795;DHT22;2411;47.060;15.064;2022-09-09T17:48:41;17.30;1.00
4795;DHT22;2411;47.060;15.064;2022-09-09T17:51:12;17.30;1.00
4795;DHT22;2411;47.060;15.064;2022-09-09T17:53:42;17.40;1.00
4795;DHT22;2411;47.060;15.064;2022-09-09T17:56:12;17.40;1.00
4795;DHT22;2411;47.060;15.064;2022-09-09T17:58:39;17.30;1.00
4795;DHT22;2411;47.060;15.064;2022-09-09T18:01:09;17.20;1.00
4795;DHT22;2411;47.060;15.064;2022-09-09T18:03:39;17.20;1.00
4795;DHT22;2411;47.060;15.064;2022-09-09T18:06:08;17.10;1.00
4795;DHT22;2411;47.060;15.064;2022-09-09T18:08:35;17.10;1.00
4795;DHT22;2411;47.060;15.064;2022-09-09T18:11:03;17.00;1.00
4795;DHT22;2411;47.060;15.064;2022-09-09T18:13:30;17.00;1.00
4795;DHT22;2411;47.060;15.064;2022-09-09T18:15:57;16.90;1.00
4795;DHT22;2411;47.060;15.064;2022-09-09T18:18:25;16.90;1.00
4795;DHT22;2411;47.060;15.064;2022-09-09T18:21:07;16.90;1.00
4795;DHT22;2411;47.060;15.064;2022-09-09T18:23:35;16.90;1.00
4795;DHT22;2411;47.060;15.064;2022-09-09T18:26:11;16.90;1.00
4795;DHT22;2411;47.060;15.064;2022-09-09T18:28:40;16.90;1.00
4795;DHT22;2411;47.060;15.064;2022-09-09T18:31:12;16.80;1.00
4795;DHT22;2411;47.060;15.064;2022-09-09T18:33:42;16.80;1.00
4795;DHT22;2411;47.060;15.064;2022-09-09T18:36:13;16.70;1.00
4795;DHT22;2411;47.060;15.064;2022-09-09T18:38:44;16.70;1.00
4795;DHT22;2411;47.060;15.064;2022-09-09T18:41:22;16.70;1.00
4795;DHT22;2411;47.060;15.064;2022-09-09T18:43:52;16.60;1.00
4795;DHT22;2411;47.060;15.064;2022-09-09T18:46:22;16.60;1.00
4795;DHT22;2411;47.060;15.064;2022-09-09T18:48:49;16.50;1.00
4795;DHT22;2411;47.060;15.064;2022-09-09T18:51:22;16.40;1.00
4795;DHT22;2411;47.060;15.064;2022-09-09T18:53:56;16.40;1.00
4795;DHT22;2411;47.060;15.064;2022-09-09T18:56:23;16.30;1.00
4795;DHT22;2411;47.060;15.064;2022-09-09T18:58:51;16.30;1.00
4795;DHT22;2411;47.060;15.064;2022-09-09T19:01:18;16.20;1.00
4795;DHT22;2411;47.060;15.064;2022-09-09T19:03:46;16.20;1.00